Time,TemperatureF,DewpointF,PressureIn,WindDirection,WindDirectionDegrees,WindSpeedMPH,WindSpeedGustMPH,Humidity,HourlyPrecipIn,Conditions,Clouds,dailyrainin,SolarRadiationWatts/m^2,SoftwareType,DateUTC
2013-04-26 00:02:00,62.0,40.0,-100.00,SSE,151,10.0,14.0,45,0.00,,,0.00,0.000000,,2013-04-26 05:02:00,
2013-04-26 00:12:00,62.0,40.0,-100.00,SSE,151,10.0,14.0,45,0.00,,,0.00,0.000000,,2013-04-26 05:12:00,
2013-04-26 00:22:00,62.0,40.0,-100.00,SSE,151,10.0,14.0,45,0.00,,,0.00,0.000000,,2013-04-26 05:22:00,
2013-04-26 00:32:00,62.0,40.0,-100.00,SSE,151,10.0,14.0,45,0.00,,,0.00,0.000000,,2013-04-26 05:32:00,
2013-04-26 01:02:00,62.0,41.0,-100.00,SSE,155,9.0,15.0,46,0.00,,,0.00,0.000000,,2013-04-26 06:02:00,
2013-04-26 01:11:00,62.0,41.0,-100.00,SSE,155,9.0,15.0,46,0.00,,,0.00,0.000000,,2013-04-26 06:11:00,
2013-04-26 01:21:00,62.0,41.0,-100.00,SSE,155,9.0,15.0,46,0.00,,,0.00,0.000000,,2013-04-26 06:21:00,
2013-04-26 01:32:00,62.0,41.0,-100.00,SSE,155,9.0,15.0,46,0.00,,,0.00,0.000000,,2013-04-26 06:32:00,
2013-04-26 02:01:00,61.0,45.0,-100.00,SSE,147,11.0,19.0,56,0.00,,,0.00,0.000000,,2013-04-26 07:01:00,
2013-04-26 02:11:00,61.0,45.0,-100.00,SSE,147,11.0,19.0,56,0.00,,,0.00,0.000000,,2013-04-26 07:11:00,
2013-04-26 02:22:00,61.0,45.0,-100.00,SSE,147,11.0,19.0,56,0.00,,,0.00,0.000000,,2013-04-26 07:22:00,
2013-04-26 02:31:00,61.0,45.0,-100.00,SSE,147,11.0,19.0,56,0.00,,,0.00,0.000000,,2013-04-26 07:31:00,
2013-04-26 03:02:00,59.0,50.0,-100.00,SSE,163,9.0,21.0,71,0.00,,,0.00,0.000000,,2013-04-26 08:02:00,
2013-04-26 03:11:00,59.0,50.0,-100.00,SSE,163,9.0,21.0,71,0.00,,,0.00,0.000000,,2013-04-26 08:11:00,
2013-04-26 03:21:00,59.0,50.0,-100.00,SSE,163,9.0,21.0,71,0.00,,,0.00,0.000000,,2013-04-26 08:21:00,
2013-04-26 03:32:00,59.0,50.0,-100.00,SSE,163,9.0,21.0,71,0.00,,,0.00,0.000000,,2013-04-26 08:32:00,
2013-04-26 04:01:00,58.0,55.0,-100.00,SSE,167,9.0,18.0,89,0.00,,,0.00,0.000000,,2013-04-26 09:01:00,
2013-04-26 04:11:00,58.0,55.0,-100.00,SSE,167,9.0,18.0,89,0.00,,,0.00,0.000000,,2013-04-26 09:11:00,
2013-04-26 04:21:00,58.0,55.0,-100.00,SSE,167,9.0,18.0,89,0.00,,,0.00,0.000000,,2013-04-26 09:21:00,
2013-04-26 04:33:00,58.0,55.0,-100.00,SSE,167,9.0,18.0,89,0.00,,,0.00,0.000000,,2013-04-26 09:33:00,
2013-04-26 05:03:00,57.0,55.0,-100.00,South,178,11.0,18.0,94,0.00,,,0.00,0.000000,,2013-04-26 10:03:00,
2013-04-26 05:12:00,57.0,55.0,-100.00,South,178,11.0,18.0,94,0.00,,,0.00,0.000000,,2013-04-26 10:12:00,
2013-04-26 05:23:00,57.0,55.0,-100.00,South,178,11.0,18.0,94,0.00,,,0.00,0.000000,,2013-04-26 10:23:00,
2013-04-26 05:33:00,57.0,55.0,-100.00,South,178,11.0,18.0,94,0.00,,,0.00,0.000000,,2013-04-26 10:33:00,
2013-04-26 06:02:00,57.0,56.0,-100.00,South,179,8.0,16.0,96,0.00,,,0.00,0.000000,,2013-04-26 11:02:00,
2013-04-26 06:11:00,57.0,56.0,-100.00,South,179,8.0,16.0,96,0.00,,,0.00,0.000000,,2013-04-26 11:11:00,
2013-04-26 06:22:00,57.0,56.0,-100.00,South,179,8.0,16.0,96,0.00,,,0.00,0.000000,,2013-04-26 11:22:00,
2013-04-26 06:32:00,57.0,56.0,-100.00,South,179,8.0,16.0,96,0.00,,,0.00,0.000000,,2013-04-26 11:32:00,
2013-04-26 07:01:00,57.0,56.0,-100.00,South,183,5.0,11.0,97,0.00,,,0.00,0.000000,,2013-04-26 12:01:00,
2013-04-26 07:11:00,57.0,56.0,-100.00,South,183,5.0,11.0,97,0.00,,,0.00,0.000000,,2013-04-26 12:11:00,
2013-04-26 07:21:00,57.0,56.0,-100.00,South,183,5.0,11.0,97,0.00,,,0.00,0.000000,,2013-04-26 12:21:00,
2013-04-26 07:32:00,57.0,56.0,-100.00,South,183,5.0,11.0,97,0.00,,,0.00,0.000000,,2013-04-26 12:32:00,
2013-04-26 08:01:00,58.0,57.0,-100.00,SSE,158,4.0,7.0,98,0.00,,,0.00,2.000000,,2013-04-26 13:01:00,
2013-04-26 08:11:00,58.0,57.0,-100.00,SSE,158,4.0,7.0,98,0.00,,,0.00,2.000000,,2013-04-26 13:11:00,
2013-04-26 08:21:00,58.0,57.0,-100.00,SSE,158,4.0,7.0,98,0.00,,,0.00,2.000000,,2013-04-26 13:21:00,
2013-04-26 08:32:00,58.0,57.0,-100.00,SSE,158,4.0,7.0,98,0.00,,,0.00,2.000000,,2013-04-26 13:32:00,
2013-04-26 09:01:00,60.0,59.0,-100.00,SSE,165,6.0,11.0,98,0.00,,,0.00,36.000000,,2013-04-26 14:01:00,
2013-04-26 09:11:00,60.0,59.0,-100.00,SSE,165,6.0,11.0,98,0.00,,,0.00,36.000000,,2013-04-26 14:11:00,
2013-04-26 09:21:00,60.0,59.0,-100.00,SSE,165,6.0,11.0,98,0.00,,,0.00,36.000000,,2013-04-26 14:21:00,
2013-04-26 09:32:00,60.0,59.0,-100.00,SSE,165,6.0,11.0,98,0.00,,,0.00,36.000000,,2013-04-26 14:32:00,
2013-04-26 10:01:00,62.0,62.0,-100.00,SSE,164,10.0,16.0,99,0.00,,,0.00,68.000000,,2013-04-26 15:01:00,
2013-04-26 10:12:00,62.0,62.0,-100.00,SSE,164,10.0,16.0,99,0.00,,,0.00,68.000000,,2013-04-26 15:12:00,
2013-04-26 10:21:00,62.0,62.0,-100.00,SSE,164,10.0,16.0,99,0.00,,,0.00,68.000000,,2013-04-26 15:21:00,
2013-04-26 10:33:00,62.0,62.0,-100.00,SSE,164,10.0,16.0,99,0.00,,,0.00,68.000000,,2013-04-26 15:33:00,
2013-04-26 11:03:00,63.0,63.0,-100.00,SSE,154,8.0,15.0,99,0.00,,,0.00,80.000000,,2013-04-26 16:03:00,
2013-04-26 11:12:00,63.0,63.0,-100.00,SSE,154,8.0,15.0,99,0.00,,,0.00,80.000000,,2013-04-26 16:12:00,
2013-04-26 11:23:00,63.0,63.0,-100.00,SSE,154,8.0,15.0,99,0.00,,,0.00,80.000000,,2013-04-26 16:23:00,
2013-04-26 11:33:00,63.0,63.0,-100.00,SSE,154,8.0,15.0,99,0.00,,,0.00,80.000000,,2013-04-26 16:33:00,
2013-04-26 12:02:00,65.0,65.0,-100.00,SSE,160,10.0,15.0,100,0.00,,,0.00,112.000000,,2013-04-26 17:02:00,
2013-04-26 12:12:00,65.0,65.0,-100.00,SSE,160,10.0,15.0,100,0.00,,,0.00,112.000000,,2013-04-26 17:12:00,
2013-04-26 12:22:00,65.0,65.0,-100.00,SSE,160,10.0,15.0,100,0.00,,,0.00,112.000000,,2013-04-26 17:22:00,
2013-04-26 12:31:00,65.0,65.0,-100.00,SSE,160,10.0,15.0,100,0.00,,,0.00,112.000000,,2013-04-26 17:31:00,
2013-04-26 13:02:00,68.0,68.0,-100.00,South,187,13.0,19.0,100,0.00,,,0.00,190.000000,,2013-04-26 18:02:00,
2013-04-26 13:12:00,68.0,68.0,-100.00,South,187,13.0,19.0,100,0.00,,,0.00,190.000000,,2013-04-26 18:12:00,
2013-04-26 13:22:00,68.0,68.0,-100.00,South,187,13.0,19.0,100,0.00,,,0.00,190.000000,,2013-04-26 18:22:00,
2013-04-26 13:33:00,68.0,68.0,-100.00,South,187,13.0,19.0,100,0.00,,,0.00,190.000000,,2013-04-26 18:33:00,
2013-04-26 14:01:00,73.0,65.0,-100.00,SW,215,11.0,22.0,75,0.00,,,0.00,300.000000,,2013-04-26 19:01:00,
2013-04-26 14:12:00,73.0,65.0,-100.00,SW,215,11.0,22.0,75,0.00,,,0.00,300.000000,,2013-04-26 19:12:00,
2013-04-26 14:22:00,73.0,65.0,-100.00,SW,215,11.0,22.0,75,0.00,,,0.00,300.000000,,2013-04-26 19:22:00,
2013-04-26 14:32:00,73.0,65.0,-100.00,SW,215,11.0,22.0,75,0.00,,,0.00,300.000000,,2013-04-26 19:32:00,
2013-04-26 15:02:00,75.0,65.0,-100.00,South,186,9.0,19.0,70,0.00,,,0.00,321.000000,,2013-04-26 20:02:00,
2013-04-26 15:11:00,75.0,65.0,-100.00,South,186,9.0,19.0,70,0.00,,,0.00,321.000000,,2013-04-26 20:11:00,
2013-04-26 15:21:00,75.0,65.0,-100.00,South,186,9.0,19.0,70,0.00,,,0.00,321.000000,,2013-04-26 20:21:00,
2013-04-26 15:32:00,75.0,65.0,-100.00,South,186,9.0,19.0,70,0.00,,,0.00,321.000000,,2013-04-26 20:32:00,
2013-04-26 16:02:00,72.0,64.0,-100.00,South,179,7.0,15.0,76,0.00,,,0.00,67.000000,,2013-04-26 21:02:00,
2013-04-26 16:11:00,72.0,64.0,-100.00,South,179,7.0,15.0,76,0.00,,,0.00,67.000000,,2013-04-26 21:11:00,
2013-04-26 16:22:00,72.0,64.0,-100.00,South,179,7.0,15.0,76,0.00,,,0.00,67.000000,,2013-04-26 21:22:00,
2013-04-26 16:33:00,72.0,64.0,-100.00,South,179,7.0,15.0,76,0.00,,,0.00,67.000000,,2013-04-26 21:33:00,
2013-04-26 17:02:00,73.0,67.0,-100.00,SSE,164,6.0,12.0,81,0.00,,,0.00,156.000000,,2013-04-26 22:02:00,
2013-04-26 17:12:00,73.0,67.0,-100.00,SSE,164,6.0,12.0,81,0.00,,,0.00,156.000000,,2013-04-26 22:12:00,
2013-04-26 17:23:00,73.0,67.0,-100.00,SSE,164,6.0,12.0,81,0.00,,,0.00,156.000000,,2013-04-26 22:23:00,
2013-04-26 17:33:00,73.0,67.0,-100.00,SSE,164,6.0,12.0,81,0.00,,,0.00,156.000000,,2013-04-26 22:33:00,
2013-04-26 18:02:00,73.0,66.0,-100.00,SE,143,12.0,22.0,79,0.00,,,0.00,253.000000,,2013-04-26 23:02:00,
2013-04-26 18:11:00,73.0,66.0,-100.00,SE,143,12.0,22.0,79,0.00,,,0.00,253.000000,,2013-04-26 23:11:00,
2013-04-26 18:21:00,73.0,66.0,-100.00,SE,143,12.0,22.0,79,0.00,,,0.00,253.000000,,2013-04-26 23:21:00,
2013-04-26 18:32:00,73.0,66.0,-100.00,SE,143,12.0,22.0,79,0.00,,,0.00,253.000000,,2013-04-26 23:32:00,
2013-04-26 19:01:00,73.0,66.0,-100.00,South,183,11.0,22.0,78,0.00,,,0.00,135.000000,,2013-04-27 00:01:00,
2013-04-26 19:11:00,73.0,66.0,-100.00,South,183,11.0,22.0,78,0.00,,,0.00,135.000000,,2013-04-27 00:11:00,
2013-04-26 19:21:00,73.0,66.0,-100.00,South,183,11.0,22.0,78,0.00,,,0.00,135.000000,,2013-04-27 00:21:00,
2013-04-26 19:32:00,73.0,66.0,-100.00,South,183,11.0,22.0,78,0.00,,,0.00,135.000000,,2013-04-27 00:32:00,
2013-04-26 20:01:00,73.0,67.0,-100.00,South,169,9.0,16.0,81,0.00,,,0.00,33.000000,,2013-04-27 01:01:00,
2013-04-26 20:12:00,73.0,67.0,-100.00,South,169,9.0,16.0,81,0.00,,,0.00,33.000000,,2013-04-27 01:12:00,
2013-04-26 20:21:00,73.0,67.0,-100.00,South,169,9.0,16.0,81,0.00,,,0.00,33.000000,,2013-04-27 01:21:00,
2013-04-26 20:32:00,73.0,67.0,-100.00,South,169,9.0,16.0,81,0.00,,,0.00,33.000000,,2013-04-27 01:32:00,
2013-04-26 21:01:00,72.0,66.0,-100.00,South,176,8.0,16.0,81,0.00,,,0.00,8.000000,,2013-04-27 02:01:00,
2013-04-26 21:11:00,72.0,66.0,-100.00,South,176,8.0,16.0,81,0.00,,,0.00,8.000000,,2013-04-27 02:11:00,
2013-04-26 21:22:00,72.0,66.0,-100.00,South,176,8.0,16.0,81,0.00,,,0.00,8.000000,,2013-04-27 02:22:00,
2013-04-26 21:32:00,72.0,66.0,-100.00,South,176,8.0,16.0,81,0.00,,,0.00,8.000000,,2013-04-27 02:32:00,
2013-04-26 22:02:00,73.0,66.0,-100.00,SSE,168,11.0,15.0,79,0.00,,,0.00,0.000000,,2013-04-27 03:02:00,
2013-04-26 22:11:00,73.0,66.0,-100.00,SSE,168,11.0,15.0,79,0.00,,,0.00,0.000000,,2013-04-27 03:11:00,
2013-04-26 22:22:00,73.0,66.0,-100.00,SSE,168,11.0,15.0,79,0.00,,,0.00,0.000000,,2013-04-27 03:22:00,
2013-04-26 22:33:00,73.0,66.0,-100.00,SSE,168,11.0,15.0,79,0.00,,,0.00,0.000000,,2013-04-27 03:33:00,
2013-04-26 23:03:00,71.0,65.0,-100.00,SSE,166,12.0,20.0,82,0.00,,,0.00,0.000000,,2013-04-27 04:03:00,
2013-04-26 23:13:00,71.0,65.0,-100.00,SSE,166,12.0,20.0,82,0.00,,,0.00,0.000000,,2013-04-27 04:13:00,
2013-04-26 23:23:00,71.0,65.0,-100.00,SSE,166,12.0,20.0,82,0.00,,,0.00,0.000000,,2013-04-27 04:23:00,
2013-04-26 23:33:00,71.0,65.0,-100.00,SSE,166,12.0,20.0,82,0.00,,,0.00,0.000000,,2013-04-27 04:33:00,